createdAt,value
2017-12-03T00:00:49.694Z,0
2017-12-03T00:01:59.760Z,0
2017-12-03T00:03:09.315Z,0
2017-12-03T00:04:19.441Z,0
2017-12-03T00:05:29.495Z,0
2017-12-03T00:06:39.304Z,0
2017-12-03T00:07:49.582Z,0
2017-12-03T00:08:59.436Z,0
2017-12-03T00:10:09.488Z,0
2017-12-03T00:11:19.293Z,0
2017-12-03T00:12:29.106Z,0
2017-12-03T00:13:39.176Z,0
2017-12-03T00:14:48.987Z,0
2017-12-03T00:15:59.123Z,0
2017-12-03T00:17:09.226Z,0
2017-12-03T00:18:19.298Z,0
2017-12-03T00:19:29.367Z,0
2017-12-03T00:20:39.438Z,0
2017-12-03T00:21:48.972Z,0
2017-12-03T00:22:58.774Z,0
2017-12-03T00:24:08.855Z,0
2017-12-03T00:25:18.960Z,0
2017-12-03T00:26:29.023Z,0
2017-12-03T00:27:38.829Z,0
2017-12-03T00:28:49.026Z,0
2017-12-03T00:29:58.816Z,0
2017-12-03T00:31:08.877Z,0
2017-12-03T00:32:18.675Z,0
2017-12-03T00:33:28.504Z,0
2017-12-03T00:34:38.583Z,0
2017-12-03T00:35:48.399Z,0
2017-12-03T00:36:58.474Z,0
2017-12-03T00:38:08.030Z,0
2017-12-03T00:39:18.127Z,0
2017-12-03T00:40:27.931Z,0
2017-12-03T00:41:37.987Z,0
2017-12-03T00:42:47.807Z,0
2017-12-03T00:43:57.852Z,0
2017-12-03T00:45:07.163Z,0
2017-12-03T00:46:17.223Z,0
2017-12-03T00:47:27.032Z,0
2017-12-03T00:48:36.963Z,0
2017-12-03T00:49:47.012Z,0
2017-12-03T00:50:56.807Z,0
2017-12-03T00:52:06.866Z,0
2017-12-03T00:53:16.923Z,0
2017-12-03T00:54:26.723Z,0
2017-12-03T00:55:36.846Z,0
2017-12-03T00:56:46.377Z,0
2017-12-03T00:57:56.187Z,0
2017-12-03T00:59:06.007Z,0
2017-12-03T01:00:16.076Z,0
2017-12-03T01:01:26.974Z,0
2017-12-03T01:02:36.805Z,0
2017-12-03T01:03:46.872Z,0
2017-12-03T01:04:56.926Z,0
2017-12-03T01:06:06.997Z,0
2017-12-03T01:07:17.102Z,0
2017-12-03T01:08:26.891Z,0
2017-12-03T01:09:36.949Z,0
2017-12-03T01:10:46.480Z,0
2017-12-03T01:11:56.540Z,0
2017-12-03T01:13:06.383Z,0
2017-12-03T01:14:16.442Z,0
2017-12-03T01:15:26.494Z,0
2017-12-03T01:16:36.285Z,0
2017-12-03T01:17:46.351Z,0
2017-12-03T01:18:56.146Z,0
2017-12-03T01:20:06.512Z,0
2017-12-03T01:21:16.027Z,0
2017-12-03T01:22:25.305Z,0
2017-12-03T01:23:34.872Z,0
2017-12-03T01:24:44.938Z,0
2017-12-03T01:25:54.999Z,0
2017-12-03T01:27:04.788Z,0
2017-12-03T01:28:14.302Z,0
2017-12-03T01:29:24.096Z,0
2017-12-03T01:30:33.905Z,0
2017-12-03T01:31:43.954Z,0
2017-12-03T01:32:53.744Z,0
2017-12-03T01:34:03.539Z,0
2017-12-03T01:35:13.614Z,0
2017-12-03T01:36:23.491Z,0
2017-12-03T01:37:33.558Z,0
2017-12-03T01:38:43.101Z,0
2017-12-03T01:39:53.176Z,0
2017-12-03T01:41:02.718Z,0
2017-12-03T01:42:12.801Z,0
2017-12-03T01:43:23.063Z,0
2017-12-03T01:44:32.595Z,0
2017-12-03T01:45:42.384Z,0
2017-12-03T01:46:52.167Z,0
2017-12-03T01:48:02.271Z,0
2017-12-03T01:49:12.338Z,0
2017-12-03T01:50:22.137Z,0
2017-12-03T01:51:31.950Z,0
2017-12-03T01:52:42.011Z,0
2017-12-03T01:53:52.135Z,0
2017-12-03T01:55:02.191Z,0
2017-12-03T01:56:12.017Z,0
2017-12-03T01:57:22.076Z,0
2017-12-03T01:58:31.876Z,0
2017-12-03T01:59:41.966Z,0
2017-12-03T02:00:52.032Z,0
2017-12-03T02:02:02.081Z,0
2017-12-03T02:03:12.140Z,0
2017-12-03T02:04:21.963Z,0
2017-12-03T02:05:31.824Z,0
2017-12-03T02:06:41.617Z,0
2017-12-03T02:07:51.660Z,0
2017-12-03T02:09:01.214Z,0
2017-12-03T02:10:11.303Z,0
2017-12-03T02:11:21.412Z,0
2017-12-03T02:12:31.205Z,0
2017-12-03T02:13:41.285Z,0
2017-12-03T02:14:51.081Z,0
2017-12-03T02:16:00.884Z,0
2017-12-03T02:17:10.683Z,0
2017-12-03T02:18:20.470Z,0
2017-12-03T02:19:30.530Z,0
2017-12-03T02:20:40.596Z,0
2017-12-03T02:21:50.645Z,0
2017-12-03T02:23:00.237Z,0
2017-12-03T02:24:10.224Z,0
2017-12-03T02:25:20.032Z,0
2017-12-03T02:26:30.179Z,0
2017-12-03T02:27:39.465Z,0
2017-12-03T02:28:49.514Z,0
2017-12-03T02:29:59.044Z,0
2017-12-03T02:31:09.106Z,0
2017-12-03T02:32:19.168Z,0
2017-12-03T02:33:29.224Z,0
2017-12-03T02:34:39.324Z,0
2017-12-03T02:35:48.872Z,0
2017-12-03T02:36:58.698Z,0
2017-12-03T02:38:09.600Z,0
2017-12-03T02:39:19.131Z,0
2017-12-03T02:40:30.431Z,0
2017-12-03T02:41:40.238Z,0
2017-12-03T02:42:50.027Z,0
2017-12-03T02:44:00.106Z,0
2017-12-03T02:45:10.158Z,0
2017-12-03T02:46:19.474Z,0
2017-12-03T02:47:29.283Z,0
2017-12-03T02:48:39.353Z,0
2017-12-03T02:49:49.161Z,0
2017-12-03T02:50:59.219Z,0
2017-12-03T02:52:09.074Z,0
2017-12-03T02:53:19.130Z,0
2017-12-03T02:54:29.182Z,0
2017-12-03T02:55:38.716Z,0
2017-12-03T02:56:48.502Z,0
2017-12-03T02:57:58.356Z,0
2017-12-03T02:59:08.136Z,0
2017-12-03T03:00:17.695Z,0
2017-12-03T03:01:27.218Z,0
2017-12-03T03:02:37.007Z,0
2017-12-03T03:34:12.065Z,0
2017-12-03T03:35:21.830Z,0
2017-12-03T03:36:31.878Z,0
2017-12-03T03:37:42.432Z,0
2017-12-03T03:38:52.208Z,0
2017-12-03T03:40:02.042Z,0
2017-12-03T03:41:11.846Z,0
2017-12-03T03:42:21.644Z,0
2017-12-03T03:43:31.696Z,0
2017-12-03T03:44:41.740Z,0
2017-12-03T03:45:51.930Z,0
2017-12-03T03:47:01.704Z,0
2017-12-03T03:48:11.226Z,0
2017-12-03T03:49:21.265Z,0
2017-12-03T03:50:31.321Z,0
2017-12-03T03:51:41.175Z,0
2017-12-03T03:52:50.966Z,0
2017-12-03T03:54:00.802Z,0
2017-12-03T03:55:10.598Z,0
2017-12-03T03:56:20.131Z,0
2017-12-03T03:57:30.228Z,0
2017-12-03T03:58:40.030Z,0
2017-12-03T03:59:50.883Z,0
2017-12-03T04:01:00.942Z,0
2017-12-03T04:02:10.741Z,0
2017-12-03T04:03:20.787Z,0
2017-12-03T04:04:30.583Z,0
2017-12-03T04:05:40.388Z,0
2017-12-03T04:06:50.208Z,0
2017-12-03T04:08:00.255Z,0
2017-12-03T04:09:10.374Z,0
2017-12-03T04:10:20.158Z,0
2017-12-03T04:11:29.689Z,0
2017-12-03T04:12:39.472Z,0
2017-12-03T04:13:49.264Z,0
2017-12-03T04:14:59.057Z,0
2017-12-03T04:16:09.122Z,0
2017-12-03T04:17:18.922Z,0
2017-12-03T04:18:28.705Z,0
2017-12-03T04:19:38.509Z,0
2017-12-03T04:20:48.359Z,0
2017-12-03T04:21:58.450Z,0
2017-12-03T04:23:08.251Z,0
2017-12-03T04:24:18.038Z,0
2017-12-03T04:25:27.821Z,0
2017-12-03T04:26:37.937Z,0
2017-12-03T04:27:47.744Z,0
2017-12-03T04:28:57.795Z,0
2017-12-03T04:30:07.842Z,0
2017-12-03T04:31:19.393Z,0
2017-12-03T04:32:29.495Z,0
2017-12-03T04:33:39.297Z,0
2017-12-03T04:34:49.378Z,0
2017-12-03T04:35:58.912Z,0
2017-12-03T04:37:08.971Z,0
2017-12-03T04:38:19.012Z,0
2017-12-03T04:39:28.800Z,0
2017-12-03T04:40:38.326Z,0
2017-12-03T04:41:48.192Z,0
2017-12-03T04:42:57.733Z,0
2017-12-03T04:44:07.835Z,0
2017-12-03T04:45:17.905Z,0
2017-12-03T04:46:27.967Z,0
2017-12-03T04:47:37.770Z,0
2017-12-03T04:48:47.832Z,0
2017-12-03T04:49:57.669Z,0
2017-12-03T04:51:07.463Z,0
2017-12-03T04:52:17.526Z,0
2017-12-03T04:53:27.597Z,0
2017-12-03T04:54:37.670Z,0
2017-12-03T04:55:47.777Z,0
2017-12-03T04:56:57.855Z,0
2017-12-03T04:58:07.643Z,0
2017-12-03T04:59:17.676Z,0
2017-12-03T05:00:28.018Z,0
2017-12-03T05:01:37.839Z,0
2017-12-03T05:02:47.909Z,0
2017-12-03T05:03:57.708Z,0
2017-12-03T05:05:07.496Z,0
2017-12-03T05:06:17.560Z,0
2017-12-03T05:07:27.719Z,0
2017-12-03T05:08:37.509Z,0
2017-12-03T05:09:47.566Z,0
2017-12-03T05:10:57.368Z,0
2017-12-03T05:12:07.439Z,0
2017-12-03T05:13:17.297Z,0
2017-12-03T05:14:26.828Z,0
2017-12-03T05:15:36.633Z,0
2017-12-03T05:16:46.677Z,0
2017-12-03T05:17:56.464Z,0
2017-12-03T05:19:06.564Z,0
2017-12-03T05:20:16.357Z,0
2017-12-03T05:21:26.395Z,0
2017-12-03T05:22:36.457Z,0
2017-12-03T05:23:46.517Z,0
2017-12-03T05:24:56.303Z,0
2017-12-03T05:26:06.091Z,0
2017-12-03T05:27:15.612Z,0
2017-12-03T05:28:25.672Z,0
2017-12-03T05:29:35.498Z,0
2017-12-03T05:30:45.540Z,0
2017-12-03T05:31:55.344Z,0
2017-12-03T05:33:05.393Z,0
2017-12-03T05:34:15.186Z,0
2017-12-03T05:35:25.255Z,0
2017-12-03T05:36:35.107Z,0
2017-12-03T05:37:44.927Z,0
2017-12-03T05:38:54.976Z,0
2017-12-03T05:40:05.027Z,0
2017-12-03T05:41:15.103Z,0
2017-12-03T05:42:25.192Z,0
2017-12-03T05:43:35.255Z,0
2017-12-03T05:44:44.776Z,0
2017-12-03T05:45:54.602Z,0
2017-12-03T05:47:04.416Z,0
2017-12-03T05:48:14.469Z,0
2017-12-03T05:49:23.995Z,0
2017-12-03T05:50:34.094Z,0
2017-12-03T05:51:44.164Z,0
2017-12-03T05:52:53.704Z,0
2017-12-03T05:54:03.775Z,0
2017-12-03T05:55:13.558Z,0
2017-12-03T05:56:23.380Z,0
2017-12-03T05:57:33.433Z,0
2017-12-03T05:58:43.498Z,0
2017-12-03T05:59:53.303Z,0
2017-12-03T06:01:03.378Z,0
2017-12-03T06:02:12.902Z,0
2017-12-03T06:03:22.966Z,0
2017-12-03T06:04:33.013Z,0
2017-12-03T06:05:42.815Z,0
2017-12-03T06:06:52.879Z,0
2017-12-03T06:08:02.922Z,0
2017-12-03T06:09:12.982Z,0
2017-12-03T06:10:22.778Z,0
2017-12-03T06:11:32.624Z,0
2017-12-03T06:12:42.418Z,0
2017-12-03T06:13:52.482Z,0
2017-12-03T06:15:02.026Z,0
2017-12-03T06:16:11.841Z,0
2017-12-03T06:17:21.688Z,0
2017-12-03T06:18:31.739Z,0
2017-12-03T06:19:41.776Z,0
2017-12-03T06:20:51.565Z,0
2017-12-03T06:22:01.362Z,0
2017-12-03T06:23:11.199Z,0
2017-12-03T06:24:21.297Z,0
2017-12-03T06:25:31.346Z,0
2017-12-03T06:26:41.403Z,0
2017-12-03T06:27:51.458Z,0
2017-12-03T06:29:01.523Z,0
2017-12-03T06:30:11.565Z,0
2017-12-03T06:31:21.090Z,0
2017-12-03T06:32:30.895Z,0
2017-12-03T06:33:40.948Z,0
2017-12-03T06:34:51.060Z,0
2017-12-03T06:36:02.007Z,0
2017-12-03T06:37:12.065Z,0
2017-12-03T06:38:22.113Z,0
2017-12-03T06:39:32.181Z,0
2017-12-03T06:40:42.273Z,5
2017-12-03T06:41:52.063Z,5
2017-12-03T06:43:01.610Z,5
2017-12-03T06:44:11.682Z,5
2017-12-03T06:45:21.470Z,5
2017-12-03T06:46:31.587Z,5
2017-12-03T06:47:41.634Z,5
2017-12-03T06:48:51.428Z,5
2017-12-03T06:50:01.233Z,5
2017-12-03T06:51:11.027Z,5
2017-12-03T06:52:20.575Z,5
2017-12-03T06:53:30.361Z,5
2017-12-03T06:54:39.901Z,5
2017-12-03T06:55:49.960Z,5
2017-12-03T06:57:00.030Z,10
2017-12-03T06:58:10.074Z,10
2017-12-03T06:59:19.854Z,10
2017-12-03T07:00:29.913Z,10
2017-12-03T07:01:39.188Z,10
2017-12-03T07:02:49.243Z,10
2017-12-03T07:03:59.314Z,10
2017-12-03T07:05:09.307Z,10
2017-12-03T07:06:19.363Z,10
2017-12-03T07:07:29.419Z,10
2017-12-03T07:08:38.968Z,10
2017-12-03T07:09:49.022Z,15
2017-12-03T07:10:59.121Z,15
2017-12-03T07:12:09.299Z,15
2017-12-03T07:13:19.378Z,15
2017-12-03T07:14:28.919Z,15
2017-12-03T07:15:38.984Z,15
2017-12-03T07:16:49.054Z,15
2017-12-03T07:17:59.228Z,20
2017-12-03T07:19:09.043Z,20
2017-12-03T07:20:19.114Z,20
2017-12-03T07:21:28.992Z,20
2017-12-03T07:22:39.064Z,25
2017-12-03T07:23:49.108Z,25
2017-12-03T07:24:59.161Z,25
2017-12-03T07:26:08.683Z,30
2017-12-03T07:27:18.524Z,30
2017-12-03T07:28:28.591Z,30
2017-12-03T07:29:38.454Z,30
2017-12-03T07:30:48.248Z,30
2017-12-03T07:31:58.046Z,30
2017-12-03T07:33:08.168Z,30
2017-12-03T07:34:17.950Z,30
2017-12-03T07:35:27.734Z,30
2017-12-03T07:36:37.777Z,30
2017-12-03T07:37:47.314Z,30
2017-12-03T07:38:57.402Z,30
2017-12-03T07:40:07.216Z,30
2017-12-03T07:41:17.016Z,35
2017-12-03T07:42:26.839Z,35
2017-12-03T07:43:36.897Z,35
2017-12-03T07:44:46.192Z,35
2017-12-03T07:45:55.732Z,40
2017-12-03T07:47:05.593Z,40
2017-12-03T07:48:15.637Z,40
2017-12-03T07:49:25.688Z,40
2017-12-03T07:50:35.484Z,40
2017-12-03T07:51:45.556Z,40
2017-12-03T07:52:55.353Z,40
2017-12-03T07:54:05.148Z,40
2017-12-03T07:55:15.282Z,40
2017-12-03T07:56:25.341Z,40
2017-12-03T07:57:35.188Z,40
2017-12-03T07:58:45.273Z,40
2017-12-03T07:59:55.323Z,40
2017-12-03T08:01:05.396Z,40
2017-12-03T08:02:15.759Z,40
2017-12-03T08:03:25.847Z,40
2017-12-03T08:04:35.382Z,40
2017-12-03T08:05:45.176Z,40
2017-12-03T08:06:55.232Z,40
2017-12-03T08:08:05.297Z,40
2017-12-03T08:09:15.350Z,40
2017-12-03T08:10:27.131Z,40
2017-12-03T08:11:37.200Z,40
2017-12-03T08:12:47.002Z,40
2017-12-03T08:13:57.490Z,40
2017-12-03T08:15:07.060Z,40
2017-12-03T08:16:17.117Z,40
2017-12-03T08:17:26.672Z,40
2017-12-03T08:18:36.452Z,40
2017-12-03T08:19:46.527Z,40
2017-12-03T08:20:57.044Z,45
2017-12-03T08:22:07.093Z,45
2017-12-03T08:23:17.186Z,40
2017-12-03T08:24:26.983Z,40
2017-12-03T08:25:37.049Z,40
2017-12-03T08:26:46.844Z,40
2017-12-03T08:27:56.909Z,40
2017-12-03T08:29:06.707Z,40
2017-12-03T08:30:15.973Z,40
2017-12-03T08:31:25.912Z,35
2017-12-03T08:32:35.982Z,35
2017-12-03T08:33:45.790Z,35
2017-12-03T08:34:55.310Z,35
2017-12-03T08:36:05.372Z,40
2017-12-03T08:37:15.439Z,40
2017-12-03T08:38:25.483Z,40
2017-12-03T08:39:36.696Z,40
2017-12-03T08:40:46.770Z,40
2017-12-03T08:41:56.567Z,40
2017-12-03T08:43:06.675Z,40
2017-12-03T08:44:16.736Z,40
2017-12-03T08:45:26.857Z,40
2017-12-03T08:46:36.941Z,40
2017-12-03T08:47:47.003Z,40
2017-12-03T08:48:56.859Z,40
2017-12-03T08:50:06.676Z,40
2017-12-03T08:51:16.715Z,40
2017-12-03T08:52:26.794Z,40
2017-12-03T08:53:36.921Z,40
2017-12-03T08:54:46.743Z,40
2017-12-03T08:55:56.792Z,40
2017-12-03T08:57:06.341Z,40
2017-12-03T08:58:16.409Z,40
2017-12-03T08:59:27.568Z,40
2017-12-03T09:00:37.390Z,40
2017-12-03T09:01:47.456Z,40
2017-12-03T09:02:57.247Z,45
2017-12-03T09:04:07.045Z,45
2017-12-03T09:05:17.126Z,45
2017-12-03T09:06:27.198Z,45
2017-12-03T09:07:36.991Z,50
2017-12-03T09:08:47.070Z,50
2017-12-03T09:09:57.133Z,50
2017-12-03T09:11:06.661Z,50
2017-12-03T09:12:16.718Z,50
2017-12-03T09:13:26.798Z,50
2017-12-03T09:14:36.600Z,50
2017-12-03T09:15:46.694Z,50
2017-12-03T09:16:56.487Z,50
2017-12-03T09:18:06.607Z,55
2017-12-03T09:19:16.666Z,55
2017-12-03T09:20:26.476Z,55
2017-12-03T09:21:36.680Z,55
2017-12-03T09:22:46.518Z,60
2017-12-03T09:23:56.591Z,60
2017-12-03T09:25:06.673Z,60
2017-12-03T09:26:16.757Z,60
2017-12-03T09:27:26.296Z,60
2017-12-03T09:28:36.356Z,65
2017-12-03T09:29:45.983Z,65
2017-12-03T09:30:56.030Z,65
2017-12-03T09:32:05.581Z,70
2017-12-03T09:33:15.410Z,70
2017-12-03T09:34:25.485Z,70
2017-12-03T09:35:35.269Z,75
2017-12-03T09:36:45.326Z,75
2017-12-03T09:37:55.143Z,80
2017-12-03T09:39:05.218Z,80
2017-12-03T09:40:15.015Z,80
2017-12-03T09:41:24.865Z,85
2017-12-03T09:42:34.665Z,85
2017-12-03T09:43:44.477Z,90
2017-12-03T09:44:54.860Z,85
2017-12-03T09:46:04.667Z,90
2017-12-03T09:47:14.731Z,90
2017-12-03T09:48:24.542Z,90
2017-12-03T09:49:36.082Z,90
2017-12-03T09:50:46.145Z,90
2017-12-03T09:51:56.241Z,90
2017-12-03T09:53:06.631Z,90
2017-12-03T09:54:16.779Z,85
2017-12-03T09:55:26.616Z,85
2017-12-03T09:56:36.449Z,80
2017-12-03T09:57:45.996Z,80
2017-12-03T09:58:55.878Z,75
2017-12-03T10:00:05.945Z,75
2017-12-03T10:01:16.035Z,75
2017-12-03T10:02:26.108Z,75
2017-12-03T10:03:36.437Z,80
2017-12-03T10:04:46.250Z,80
2017-12-03T10:05:55.782Z,80
2017-12-03T10:07:05.588Z,80
2017-12-03T10:08:15.143Z,80
2017-12-03T10:09:25.228Z,80
2017-12-03T10:10:34.807Z,85
2017-12-03T10:11:44.611Z,85
2017-12-03T10:12:54.690Z,90
2017-12-03T10:14:04.756Z,90
2017-12-03T10:15:14.896Z,90
2017-12-03T10:16:24.760Z,90
2017-12-03T10:17:34.843Z,90
2017-12-03T10:18:44.629Z,90
2017-12-03T10:19:54.428Z,90
2017-12-03T10:21:04.472Z,90
2017-12-03T10:22:14.270Z,85
2017-12-03T10:23:24.088Z,85
2017-12-03T10:24:34.184Z,80
2017-12-03T10:25:43.732Z,80
2017-12-03T10:26:53.537Z,80
2017-12-03T10:28:03.406Z,80
2017-12-03T10:29:13.522Z,75
2017-12-03T10:30:23.586Z,75
2017-12-03T10:31:33.641Z,75
2017-12-03T10:32:43.190Z,75
2017-12-03T10:33:52.995Z,75
2017-12-03T10:35:02.791Z,75
2017-12-03T10:36:12.868Z,75
2017-12-03T10:37:22.667Z,75
2017-12-03T10:38:32.464Z,75
2017-12-03T10:39:42.257Z,75
2017-12-03T10:40:52.072Z,80
2017-12-03T10:42:02.797Z,85
2017-12-03T10:43:12.598Z,90
2017-12-03T10:44:22.404Z,90
2017-12-03T10:45:32.100Z,90
2017-12-03T10:46:41.902Z,95
2017-12-03T10:47:51.995Z,95
2017-12-03T10:49:02.106Z,100
2017-12-03T10:50:11.915Z,100
2017-12-03T10:51:21.540Z,100
2017-12-03T10:52:31.613Z,100
2017-12-03T10:53:43.809Z,100
2017-12-03T10:54:53.912Z,100
2017-12-03T10:56:03.966Z,100
2017-12-03T10:57:14.150Z,100
2017-12-03T10:58:24.270Z,100
2017-12-03T10:59:34.353Z,105
2017-12-03T11:00:45.022Z,105
2017-12-03T11:01:55.120Z,105
2017-12-03T11:03:05.268Z,105
2017-12-03T11:04:15.335Z,110
2017-12-03T11:05:25.415Z,110
2017-12-03T11:06:35.485Z,110
2017-12-03T11:07:45.610Z,110
2017-12-03T11:08:55.691Z,110
2017-12-03T11:10:05.226Z,110
2017-12-03T11:11:15.901Z,110
2017-12-03T11:12:25.477Z,110
2017-12-03T11:13:35.546Z,105
2017-12-03T11:14:46.569Z,105
2017-12-03T11:15:56.640Z,105
2017-12-03T11:17:06.730Z,105
2017-12-03T11:18:16.820Z,100
2017-12-03T11:19:26.623Z,100
2017-12-03T11:20:36.756Z,100
2017-12-03T11:21:46.828Z,100
2017-12-03T11:22:56.904Z,100
2017-12-03T11:24:07.041Z,95
2017-12-03T11:25:17.102Z,95
2017-12-03T11:26:26.962Z,95
2017-12-03T11:27:37.071Z,95
2017-12-03T11:28:46.900Z,95
2017-12-03T11:29:56.971Z,95
2017-12-03T11:31:06.774Z,90
2017-12-03T11:32:16.895Z,90
2017-12-03T11:33:26.973Z,90
2017-12-03T11:34:36.513Z,90
2017-12-03T11:35:46.650Z,90
2017-12-03T11:36:56.438Z,90
2017-12-03T11:38:06.236Z,90
2017-12-03T11:39:15.802Z,90
2017-12-03T11:40:25.602Z,90
2017-12-03T11:41:35.651Z,90
2017-12-03T11:42:45.475Z,85
2017-12-03T11:43:55.347Z,85
2017-12-03T11:45:04.631Z,85
2017-12-03T11:46:14.696Z,85
2017-12-03T11:47:25.010Z,85
2017-12-03T11:48:35.073Z,85
2017-12-03T11:49:45.173Z,85
2017-12-03T11:50:55.260Z,85
2017-12-03T11:52:04.832Z,85
2017-12-03T11:53:14.899Z,85
2017-12-03T11:54:24.701Z,85
2017-12-03T11:55:34.754Z,85
2017-12-03T11:56:44.556Z,85
2017-12-03T11:57:54.618Z,85
2017-12-03T11:59:04.471Z,85
2017-12-03T12:00:14.272Z,85
2017-12-03T12:01:24.351Z,85
2017-12-03T12:02:34.424Z,85
2017-12-03T12:03:44.495Z,90
2017-12-03T12:04:54.564Z,90
2017-12-03T12:06:04.148Z,90
2017-12-03T12:07:14.292Z,90
2017-12-03T12:08:24.363Z,90
2017-12-03T12:09:34.455Z,90
2017-12-03T12:10:44.258Z,90
2017-12-03T12:11:54.363Z,90
2017-12-03T12:13:04.418Z,90
2017-12-03T12:14:13.998Z,90
2017-12-03T12:15:24.076Z,90
2017-12-03T12:16:33.880Z,90
2017-12-03T12:17:43.947Z,90
2017-12-03T12:18:54.092Z,90
2017-12-03T12:20:03.625Z,85
2017-12-03T12:21:13.436Z,85
2017-12-03T12:22:23.332Z,85
2017-12-03T12:23:33.122Z,85
2017-12-03T12:24:43.241Z,85
2017-12-03T12:25:53.317Z,85
2017-12-03T12:27:02.587Z,85
2017-12-03T12:28:12.405Z,80
2017-12-03T12:29:21.980Z,80
2017-12-03T12:30:31.857Z,75
2017-12-03T12:31:41.669Z,75
2017-12-03T12:32:51.777Z,75
2017-12-03T12:34:01.837Z,70
2017-12-03T12:35:11.638Z,70
2017-12-03T12:36:21.482Z,70
2017-12-03T12:37:31.310Z,65
2017-12-03T12:38:41.425Z,65
2017-12-03T12:39:51.536Z,65
2017-12-03T12:41:01.365Z,65
2017-12-03T12:42:11.454Z,60
2017-12-03T12:43:21.249Z,60
2017-12-03T12:44:31.313Z,55
2017-12-03T12:45:41.387Z,55
2017-12-03T12:46:51.492Z,55
2017-12-03T12:48:01.358Z,55
2017-12-03T12:49:11.169Z,55
2017-12-03T12:50:20.986Z,55
2017-12-03T12:51:31.034Z,55
2017-12-03T12:52:41.108Z,55
2017-12-03T12:53:51.231Z,55
2017-12-03T12:55:01.372Z,55
2017-12-03T12:56:11.453Z,55
2017-12-03T12:57:21.240Z,55
2017-12-03T12:58:31.323Z,55
2017-12-03T12:59:41.179Z,55
2017-12-03T13:00:51.260Z,55
2017-12-03T13:02:01.338Z,55
2017-12-03T13:03:11.408Z,50
2017-12-03T13:04:21.239Z,50
2017-12-03T13:05:31.125Z,50
2017-12-03T13:06:41.219Z,50
2017-12-03T13:07:51.291Z,50
2017-12-03T13:09:01.375Z,50
2017-12-03T13:10:11.180Z,50
2017-12-03T13:11:21.309Z,45
2017-12-03T13:12:31.122Z,45
2017-12-03T13:13:40.951Z,45
2017-12-03T13:14:51.011Z,45
2017-12-03T13:16:00.822Z,45
2017-12-03T13:17:10.688Z,45
2017-12-03T13:18:20.472Z,45
2017-12-03T13:19:30.370Z,50
2017-12-03T13:20:40.439Z,50
2017-12-03T13:21:50.305Z,50
2017-12-03T13:23:00.439Z,55
2017-12-03T13:24:10.785Z,55
2017-12-03T13:25:20.615Z,55
2017-12-03T13:26:30.433Z,55
2017-12-03T13:27:40.499Z,55
2017-12-03T13:28:50.118Z,55
2017-12-03T13:29:59.974Z,55
2017-12-03T13:31:10.065Z,55
2017-12-03T13:32:20.164Z,55
2017-12-03T13:33:30.239Z,50
2017-12-03T13:34:40.093Z,50
2017-12-03T13:35:49.632Z,45
2017-12-03T13:36:59.695Z,45
2017-12-03T13:38:08.978Z,45
2017-12-03T13:39:19.048Z,40
2017-12-03T13:40:29.226Z,40
2017-12-03T13:41:38.821Z,40
2017-12-03T13:42:48.891Z,40
2017-12-03T13:43:58.971Z,35
2017-12-03T13:45:09.022Z,35
2017-12-03T13:46:18.862Z,35
2017-12-03T13:47:28.684Z,35
2017-12-03T13:48:38.500Z,40
2017-12-03T13:49:48.421Z,40
2017-12-03T13:50:57.956Z,35
2017-12-03T13:52:07.562Z,35
2017-12-03T13:53:17.644Z,35
2017-12-03T13:54:27.456Z,35
2017-12-03T13:55:36.998Z,35
2017-12-03T13:56:46.789Z,40
2017-12-03T13:57:56.611Z,40
2017-12-03T13:59:06.666Z,40
2017-12-03T14:00:17.864Z,35
2017-12-03T14:01:27.672Z,35
2017-12-03T14:02:37.253Z,35
2017-12-03T14:03:47.109Z,35
2017-12-03T14:04:57.210Z,35
2017-12-03T14:06:07.283Z,35
2017-12-03T14:07:16.839Z,30
2017-12-03T14:08:26.936Z,30
2017-12-03T14:09:37.075Z,30
2017-12-03T14:10:47.173Z,30
2017-12-03T14:11:56.980Z,25
2017-12-03T14:13:06.782Z,25
2017-12-03T14:14:16.600Z,25
2017-12-03T14:15:26.440Z,25
2017-12-03T14:16:35.969Z,20
2017-12-03T14:17:45.538Z,20
2017-12-03T14:18:55.612Z,20
2017-12-03T14:20:05.681Z,20
2017-12-03T14:21:15.820Z,20
2017-12-03T14:22:25.914Z,20
2017-12-03T14:23:35.995Z,20
2017-12-03T14:24:46.079Z,20
2017-12-03T14:25:56.183Z,20
2017-12-03T14:27:06.268Z,20
2017-12-03T14:28:16.366Z,20
2017-12-03T14:29:26.461Z,20
2017-12-03T14:30:36.535Z,20
2017-12-03T14:31:46.629Z,20
2017-12-03T14:32:56.770Z,15
2017-12-03T14:34:06.630Z,15
2017-12-03T14:35:16.724Z,15
2017-12-03T14:36:26.796Z,15
2017-12-03T14:37:37.375Z,15
2017-12-03T14:39:02.948Z,15
2017-12-03T14:40:13.084Z,10
2017-12-03T14:41:23.211Z,10
2017-12-03T14:42:33.030Z,10
2017-12-03T14:43:44.231Z,10
2017-12-03T14:44:54.362Z,10
2017-12-03T14:46:04.159Z,10
2017-12-03T14:47:13.692Z,5
2017-12-03T14:48:23.770Z,5
2017-12-03T14:49:33.830Z,5
2017-12-03T14:50:43.681Z,5
2017-12-03T14:51:53.215Z,5
2017-12-03T14:53:03.064Z,5
2017-12-03T14:54:13.123Z,5
2017-12-03T14:55:23.129Z,5
2017-12-03T14:56:33.253Z,5
2017-12-03T14:57:43.337Z,0
2017-12-03T14:58:53.151Z,0
2017-12-03T15:00:03.230Z,0
2017-12-03T15:01:13.317Z,0
2017-12-03T15:02:23.420Z,0
2017-12-03T15:03:33.904Z,0
2017-12-03T15:04:43.982Z,0
2017-12-03T15:05:53.787Z,0
2017-12-03T15:07:03.351Z,0
2017-12-03T15:08:14.393Z,0
2017-12-03T15:09:24.499Z,0
2017-12-03T15:10:34.327Z,0
2017-12-03T15:11:44.415Z,0
2017-12-03T15:12:53.942Z,0
2017-12-03T15:14:03.828Z,0
2017-12-03T15:15:14.033Z,0
2017-12-03T15:16:24.182Z,0
2017-12-03T15:17:34.570Z,0
2017-12-03T15:18:44.192Z,0
2017-12-03T15:19:54.096Z,0
2017-12-03T15:21:03.655Z,0
2017-12-03T15:22:13.739Z,0
2017-12-03T15:23:23.542Z,0
2017-12-03T15:24:33.598Z,0
2017-12-03T15:25:43.460Z,0
2017-12-03T15:26:53.552Z,0
2017-12-03T15:28:03.631Z,0
2017-12-03T15:29:13.713Z,0
2017-12-03T15:30:23.785Z,0
2017-12-03T15:31:33.613Z,0
2017-12-03T15:32:43.689Z,0
2017-12-03T15:33:53.498Z,0
2017-12-03T15:35:03.568Z,0
2017-12-03T15:36:13.421Z,0
2017-12-03T15:37:23.528Z,0
2017-12-03T15:38:33.339Z,0
2017-12-03T15:39:43.212Z,0
2017-12-03T15:40:53.022Z,0
2017-12-03T15:42:03.105Z,0
2017-12-03T15:43:13.225Z,0
2017-12-03T15:44:22.771Z,0
2017-12-03T15:45:32.839Z,0
2017-12-03T15:46:43.173Z,0
2017-12-03T15:47:52.991Z,0
2017-12-03T15:49:03.048Z,0
2017-12-03T15:50:12.876Z,0
2017-12-03T15:51:23.840Z,0
2017-12-03T15:52:33.930Z,0
2017-12-03T15:53:44.004Z,0
2017-12-03T15:54:53.564Z,0
2017-12-03T15:56:03.129Z,0
2017-12-03T15:57:12.686Z,0
2017-12-03T15:58:22.767Z,0
2017-12-03T15:59:32.304Z,0
2017-12-03T16:00:42.167Z,0
2017-12-03T16:01:51.975Z,0
2017-12-03T16:03:02.057Z,0
2017-12-03T16:04:12.145Z,0
2017-12-03T16:05:22.222Z,0
2017-12-03T16:06:32.270Z,0
2017-12-03T16:07:42.087Z,0
2017-12-03T16:08:51.950Z,0
2017-12-03T16:10:01.800Z,0
2017-12-03T16:11:11.619Z,0
2017-12-03T16:12:22.113Z,0
2017-12-03T16:13:32.014Z,0
2017-12-03T16:14:42.108Z,0
2017-12-03T16:15:52.200Z,0
2017-12-03T16:17:02.025Z,0
2017-12-03T16:18:12.148Z,0
2017-12-03T16:19:21.958Z,0
2017-12-03T16:20:31.772Z,0
2017-12-03T16:21:41.574Z,0
2017-12-03T16:22:51.119Z,0
2017-12-03T16:24:00.148Z,0
2017-12-03T16:25:10.225Z,0
2017-12-03T16:26:21.235Z,0
2017-12-03T16:27:31.069Z,0
2017-12-03T16:28:41.161Z,0
2017-12-03T16:29:51.050Z,0
2017-12-03T16:31:00.857Z,0
2017-12-03T16:32:10.969Z,0
2017-12-03T16:33:21.087Z,0
2017-12-03T16:34:31.009Z,0
2017-12-03T16:35:40.883Z,0
2017-12-03T16:36:51.205Z,0
2017-12-03T16:38:27.807Z,0
2017-12-03T16:39:37.928Z,0
2017-12-03T16:40:52.711Z,0
2017-12-03T16:42:02.544Z,0
2017-12-03T16:43:12.636Z,0
2017-12-03T16:44:22.723Z,0
2017-12-03T16:45:32.791Z,0
2017-12-03T16:46:42.950Z,0
2017-12-03T16:47:53.042Z,0
2017-12-03T16:49:03.119Z,0
2017-12-03T16:50:13.375Z,0
2017-12-03T16:51:23.484Z,0
2017-12-03T16:52:33.626Z,0
2017-12-03T16:53:43.713Z,0
2017-12-03T16:54:53.533Z,0
2017-12-03T16:56:03.630Z,0
2017-12-03T16:57:13.169Z,0
2017-12-03T16:58:23.257Z,0
2017-12-03T16:59:33.089Z,0
2017-12-03T17:00:43.213Z,0
2017-12-03T17:01:53.285Z,0
2017-12-03T17:03:04.492Z,0
2017-12-03T17:04:14.582Z,0
2017-12-03T17:05:24.386Z,0
2017-12-03T17:06:34.448Z,0
2017-12-03T17:07:44.512Z,0
2017-12-03T17:08:54.621Z,0
2017-12-03T17:10:04.743Z,0
2017-12-03T17:11:14.568Z,0
2017-12-03T17:12:24.401Z,0
2017-12-03T17:13:34.464Z,0
2017-12-03T17:14:44.267Z,0
2017-12-03T17:15:54.417Z,0
2017-12-03T17:17:04.227Z,0
2017-12-03T17:18:14.290Z,0
2017-12-03T17:19:24.391Z,0
2017-12-03T17:20:34.472Z,0
2017-12-03T17:21:44.616Z,0
2017-12-03T17:22:55.434Z,0
2017-12-03T17:24:04.986Z,0
2017-12-03T17:25:15.066Z,0
2017-12-03T17:26:24.889Z,0
2017-12-03T17:27:34.475Z,0